Terminal Aerodrome Forecast
Issued by NWS

Home | Current Version | Previous Version | Text Only | Print | Product List | Glossary On
Versions: 1 2 3 4 5 6 7 8 9 10 11 12 13 14 15 16 17 18
000
FTAK31 PANC 241735
TAFAIL
TAF
PAIL 241735Z 2418/2518 VRB05KT 4SM -RASN BR SCT015 BKN025 OVC050
      TEMPO 2418/2421 2SM -RASN BR SCT005 BKN015 OVC050
     FM242100 25008KT P6SM VCSH BKN015 OVC050
     FM250900 28008KT P6SM SCT015 BKN035 OVC060=

USA.gov is the U.S. government's official web portal to all federal, state and local government web resources and services.